Augusta Regional Airport

Airport
ICAO code: 
KAGS
Summary
ICAO Region: 
NAM
Territory: 
Location: 
Augusta, Georgia,
Coordinates: 
Aerial View: 
33° 22' 20.351" N, 81° 58' 7.107" W
Metar
Observation
KAGS 021553Z 30010KT 10SM CLR 21/08 A3011 RMK AO2 SLP194 T02060083
Station
Augusta, Bush Field
Date/Time
2021-12-02 15:53:00
Wind direction
300°
Wind speed
10 kts
Lowest cloud amount
n/a
Temperature
20.6°C
Dew point
8.3°C
Humidity
45%
Weather condition
n/a

Description

Augusta Regional Airport, also known as Augusta Regional Airport at Bush Field, is a city-owned, public-use airport located 11 km south of the central business district of Augusta, a city in Richmond County, Georgia.

Climatology

Humid “subtropical” climate (Köppen climate classification Cfa) - characterized by hot, humid summers and cool winters. Significant amounts of precipitation occur in all seasons in most areas.

Runways

Designator Length Width Surface Rops
8/26 1829 23 ASP Yes/Yes
17/35 2439 46 ASP Yes/Yes
Airport map: 
Aerial View: 

SKYbrary Partners:

Safety knowledge contributed by: